createdAt,value
2022-11-24T00:02:27.989Z,24
2022-11-24T00:04:58.592Z,24
2022-11-24T00:07:29.667Z,25
2022-11-24T00:09:59.989Z,28
2022-11-24T00:12:30.889Z,30
2022-11-24T00:15:02.096Z,28
2022-11-24T00:17:33.879Z,25
2022-11-24T00:20:05.637Z,24
2022-11-24T00:22:44.638Z,28
2022-11-24T00:25:15.579Z,26
2022-11-24T00:27:46.517Z,28
2022-11-24T00:30:17.786Z,23
2022-11-24T00:32:49.432Z,24
2022-11-24T00:35:20.062Z,21
2022-11-24T00:37:52.514Z,24
2022-11-24T00:40:22.999Z,27
2022-11-24T00:42:53.339Z,24
2022-11-24T00:45:23.405Z,24
2022-11-24T00:47:54.077Z,25
2022-11-24T00:50:27.877Z,23
2022-11-24T00:53:00.387Z,20
2022-11-24T00:55:31.187Z,24
2022-11-24T00:58:02.105Z,24
2022-11-24T01:00:34.405Z,24
2022-11-24T01:03:05.610Z,24
2022-11-24T01:05:36.382Z,24
2022-11-24T01:08:07.488Z,22
2022-11-24T01:10:38.421Z,26
2022-11-24T01:13:09.894Z,24
2022-11-24T01:15:41.458Z,24
2022-11-24T01:18:12.159Z,20
2022-11-24T01:20:42.906Z,23
2022-11-24T01:23:13.811Z,24
2022-11-24T01:25:47.419Z,20
2022-11-24T01:28:18.205Z,24
2022-11-24T01:30:49.000Z,24
2022-11-24T01:33:20.068Z,20
2022-11-24T01:35:50.498Z,24
2022-11-24T01:38:21.198Z,24
2022-11-24T01:40:51.605Z,25
2022-11-24T01:43:22.330Z,24
2022-11-24T01:45:57.815Z,20
2022-11-24T01:48:31.470Z,24
2022-11-24T01:51:03.625Z,20
2022-11-24T01:53:34.610Z,23
2022-11-24T01:56:04.808Z,20
2022-11-24T01:58:35.230Z,22
2022-11-24T02:01:08.957Z,24
2022-11-24T02:03:39.993Z,24
2022-11-24T02:06:10.989Z,20
2022-11-24T02:08:42.690Z,24
2022-11-24T02:11:13.564Z,24
2022-11-24T02:13:44.197Z,21
2022-11-24T02:16:15.095Z,21
2022-11-24T02:18:46.871Z,21
2022-11-24T02:21:17.792Z,26
2022-11-24T02:23:47.594Z,24
2022-11-24T02:26:18.305Z,24
2022-11-24T02:28:49.522Z,24
2022-11-24T02:31:20.720Z,24
2022-11-24T02:33:53.026Z,24
2022-11-24T02:36:23.743Z,24
2022-11-24T02:38:58.751Z,24
2022-11-24T02:41:30.223Z,24
2022-11-24T02:44:01.687Z,24
2022-11-24T02:46:32.767Z,21
2022-11-24T02:49:03.522Z,24
2022-11-24T02:51:36.075Z,24
2022-11-24T02:54:07.226Z,24
2022-11-24T02:56:40.011Z,20
2022-11-24T02:59:12.811Z,20
2022-11-24T03:01:44.212Z,24
2022-11-24T03:04:14.963Z,24
2022-11-24T03:06:45.988Z,23
2022-11-24T03:09:17.303Z,24
2022-11-24T03:11:50.059Z,24
2022-11-24T03:14:21.486Z,24
2022-11-24T03:16:52.884Z,20
2022-11-24T03:19:24.968Z,24
2022-11-24T03:21:56.130Z,24
2022-11-24T03:24:27.029Z,24
2022-11-24T03:26:57.903Z,22
2022-11-24T03:29:28.884Z,24
2022-11-24T03:31:59.988Z,24
2022-11-24T03:34:31.270Z,24
2022-11-24T03:37:02.758Z,24
2022-11-24T03:39:33.777Z,24
2022-11-24T03:42:08.311Z,26
2022-11-24T03:44:39.074Z,24
2022-11-24T03:47:10.543Z,23
2022-11-24T03:49:41.964Z,24
2022-11-24T03:52:13.212Z,26
2022-11-24T03:54:44.231Z,24
2022-11-24T03:57:15.449Z,24
2022-11-24T03:59:49.453Z,28
2022-11-24T04:02:19.137Z,26
2022-11-24T04:04:50.229Z,24
2022-11-24T04:07:20.881Z,25
2022-11-24T04:09:51.766Z,28
2022-11-24T04:12:22.138Z,24
2022-11-24T04:14:52.674Z,24
2022-11-24T04:17:28.136Z,24
2022-11-24T04:19:59.197Z,24
2022-11-24T04:22:30.189Z,23
2022-11-24T04:25:01.389Z,24
2022-11-24T04:27:35.708Z,24
2022-11-24T04:30:06.503Z,24
2022-11-24T04:32:43.435Z,24
2022-11-24T04:35:16.183Z,24
2022-11-24T04:37:46.942Z,24
2022-11-24T04:40:18.009Z,24
2022-11-24T04:42:48.750Z,24
2022-11-24T04:45:25.250Z,23
2022-11-24T04:47:58.179Z,21
2022-11-24T04:50:28.967Z,20
2022-11-24T04:53:00.437Z,24
2022-11-24T04:55:31.785Z,28
2022-11-24T04:58:03.055Z,23
2022-11-24T05:00:33.460Z,24
2022-11-24T05:03:04.114Z,24
2022-11-24T05:05:34.732Z,24
2022-11-24T05:08:05.901Z,24
2022-11-24T05:10:36.961Z,24
2022-11-24T05:13:08.157Z,24
2022-11-24T05:15:42.160Z,24
2022-11-24T05:18:12.782Z,24
2022-11-24T05:20:43.563Z,24
2022-11-24T05:23:14.893Z,24
2022-11-24T05:25:47.716Z,25
2022-11-24T05:28:16.484Z,24
2022-11-24T05:30:47.766Z,24
2022-11-24T05:33:18.797Z,24
2022-11-24T05:35:50.426Z,24
2022-11-24T05:38:21.494Z,28
2022-11-24T05:40:52.159Z,27
2022-11-24T05:43:23.167Z,25
2022-11-24T05:45:54.109Z,26
2022-11-24T05:48:28.295Z,27
2022-11-24T05:50:59.882Z,25
2022-11-24T05:53:31.299Z,28
2022-11-24T05:56:02.603Z,28
2022-11-24T05:58:33.665Z,28
2022-11-24T06:01:04.118Z,27
2022-11-24T06:03:34.800Z,28
2022-11-24T06:06:05.442Z,28
2022-11-24T06:08:36.573Z,28
2022-11-24T06:11:06.866Z,25
2022-11-24T06:13:37.694Z,28
2022-11-24T06:16:08.254Z,25
2022-11-24T06:18:39.025Z,24
2022-11-24T06:21:11.419Z,24
2022-11-24T06:23:41.023Z,26
2022-11-24T06:26:09.902Z,20
2022-11-24T06:28:40.823Z,25
2022-11-24T06:31:10.863Z,24
2022-11-24T06:33:41.366Z,24
2022-11-24T06:36:11.960Z,24
2022-11-24T06:38:43.102Z,20
2022-11-24T06:41:14.187Z,24
2022-11-24T06:43:44.926Z,27
2022-11-24T06:46:15.542Z,24
2022-11-24T06:48:46.227Z,25
2022-11-24T06:51:16.910Z,24
2022-11-24T06:53:47.613Z,24
2022-11-24T06:56:18.760Z,16
2022-11-24T06:58:52.283Z,16
2022-11-24T07:01:23.242Z,20
2022-11-24T07:03:56.067Z,24
2022-11-24T07:06:28.208Z,19
2022-11-24T07:09:00.499Z,20
2022-11-24T07:11:31.773Z,20
2022-11-24T07:14:02.095Z,24
2022-11-24T07:16:37.187Z,20
2022-11-24T07:19:08.444Z,20
2022-11-24T07:21:38.526Z,19
2022-11-24T07:24:12.176Z,20
2022-11-24T07:26:46.695Z,16
2022-11-24T07:29:16.959Z,16
2022-11-24T07:31:48.135Z,19
2022-11-24T07:34:18.810Z,21
2022-11-24T07:36:49.569Z,16
2022-11-24T07:39:23.571Z,20
2022-11-24T07:41:54.774Z,20
2022-11-24T07:44:25.607Z,19
2022-11-24T07:46:55.954Z,19
2022-11-24T07:49:26.268Z,20
2022-11-24T07:51:57.253Z,20
2022-11-24T07:54:27.973Z,24
2022-11-24T07:57:01.116Z,17
2022-11-24T07:59:31.994Z,20
2022-11-24T08:02:02.467Z,20
2022-11-24T08:04:33.267Z,16
2022-11-24T08:07:05.331Z,16
2022-11-24T08:09:36.074Z,15
2022-11-24T08:12:06.821Z,19
2022-11-24T08:14:38.361Z,12
2022-11-24T08:17:09.158Z,16
2022-11-24T08:19:41.802Z,20
2022-11-24T08:22:12.934Z,13
2022-11-24T08:24:44.708Z,15
2022-11-24T08:27:15.741Z,16
2022-11-24T08:29:46.499Z,16
2022-11-24T08:32:21.874Z,12
2022-11-24T08:34:47.264Z,16
2022-11-24T08:37:17.866Z,14
2022-11-24T08:39:49.010Z,16
2022-11-24T08:42:19.699Z,14
2022-11-24T08:44:58.781Z,16
2022-11-24T08:47:23.946Z,16
2022-11-24T08:49:54.850Z,12
2022-11-24T08:52:25.909Z,16
2022-11-24T08:54:56.571Z,16
2022-11-24T08:57:27.815Z,12
2022-11-24T08:59:59.038Z,16
2022-11-24T09:02:29.680Z,13
2022-11-24T09:05:00.722Z,16
2022-11-24T09:07:36.189Z,16
2022-11-24T09:10:07.448Z,19
2022-11-24T09:12:38.705Z,16
2022-11-24T09:15:09.144Z,16
2022-11-24T09:17:40.907Z,20
2022-11-24T09:20:10.926Z,15
2022-11-24T09:22:41.840Z,16
2022-11-24T09:25:13.306Z,12
2022-11-24T09:27:47.606Z,16
2022-11-24T09:30:18.199Z,12
2022-11-24T09:32:49.342Z,16
2022-11-24T09:35:20.962Z,12
2022-11-24T09:37:51.313Z,12
2022-11-24T09:40:21.637Z,12
2022-11-24T09:42:53.765Z,15
2022-11-24T09:45:35.620Z,15
2022-11-24T09:47:53.197Z,12
2022-11-24T09:50:23.447Z,13
2022-11-24T09:52:54.384Z,12
2022-11-24T09:55:25.374Z,16
2022-11-24T09:57:58.928Z,14
2022-11-24T10:00:30.826Z,12
2022-11-24T10:03:05.366Z,15
2022-11-24T10:05:35.804Z,15
2022-11-24T10:08:06.596Z,12
2022-11-24T10:10:37.214Z,12
2022-11-24T10:13:07.428Z,15
2022-11-24T10:15:37.897Z,12
2022-11-24T10:18:16.349Z,13
2022-11-24T10:20:46.277Z,12
2022-11-24T10:23:26.122Z,16
2022-11-24T10:25:57.321Z,12
2022-11-24T10:28:28.361Z,13
2022-11-24T10:30:59.334Z,16
2022-11-24T10:33:30.997Z,13
2022-11-24T10:36:03.300Z,16
2022-11-24T10:38:33.885Z,16
2022-11-24T10:41:04.143Z,12
2022-11-24T10:43:35.070Z,16
2022-11-24T10:46:10.111Z,14
2022-11-24T10:48:43.249Z,16
2022-11-24T10:51:14.240Z,16
2022-11-24T10:53:48.820Z,16
2022-11-24T10:56:20.814Z,16
2022-11-24T10:58:51.236Z,16
2022-11-24T11:01:22.525Z,16
2022-11-24T11:03:52.759Z,24
2022-11-24T11:06:23.004Z,42
2022-11-24T11:08:53.216Z,24
2022-11-24T11:11:23.836Z,24
2022-11-24T11:13:58.442Z,20
2022-11-24T11:16:24.920Z,17
2022-11-24T11:19:15.923Z,16
2022-11-24T11:21:36.898Z,16
2022-11-24T11:24:07.136Z,17
2022-11-24T11:26:38.150Z,32
2022-11-24T11:34:02.623Z,28
2022-11-24T11:34:22.052Z,20
2022-11-24T11:36:46.415Z,19
2022-11-24T11:39:20.970Z,16
2022-11-24T11:41:51.728Z,16
2022-11-24T11:44:22.161Z,16
2022-11-24T11:46:52.850Z,16
2022-11-24T11:49:23.276Z,16
2022-11-24T11:51:53.976Z,16
2022-11-24T11:54:24.202Z,16
2022-11-24T11:56:58.435Z,13
2022-11-24T11:59:29.391Z,15
2022-11-24T12:02:02.087Z,16
2022-11-24T12:04:32.448Z,12
2022-11-24T12:07:04.002Z,16
2022-11-24T12:09:34.424Z,16
2022-11-24T12:12:04.433Z,20
2022-11-24T12:14:36.665Z,12
2022-11-24T12:17:05.835Z,12
2022-11-24T12:19:37.022Z,12
2022-11-24T12:22:07.229Z,11
2022-11-24T12:24:38.581Z,12
2022-11-24T12:27:09.021Z,12
2022-11-24T12:29:40.752Z,12
2022-11-24T12:32:12.665Z,12
2022-11-24T12:34:44.054Z,13
2022-11-24T12:37:14.858Z,16
2022-11-24T12:39:45.379Z,16
2022-11-24T12:42:15.691Z,24
2022-11-24T12:44:49.039Z,16
2022-11-24T12:47:19.383Z,12
2022-11-24T12:49:49.622Z,12
2022-11-24T12:52:20.203Z,12
2022-11-24T12:54:50.814Z,16
2022-11-24T12:57:29.450Z,16
2022-11-24T13:00:00.201Z,18
2022-11-24T13:02:31.054Z,24
2022-11-24T13:05:01.618Z,24
2022-11-24T13:07:32.236Z,32
2022-11-24T13:10:03.250Z,24
2022-11-24T13:12:33.979Z,32
2022-11-24T13:15:05.444Z,37
2022-11-24T13:17:58.300Z,33
2022-11-24T13:20:08.201Z,36
2022-11-24T13:22:38.765Z,36
2022-11-24T13:25:09.191Z,36
2022-11-24T13:27:40.248Z,36
2022-11-24T13:30:11.062Z,36
2022-11-24T13:32:41.620Z,36
2022-11-24T13:35:13.151Z,37
2022-11-24T13:37:45.454Z,40
2022-11-24T13:40:16.696Z,40
2022-11-24T13:42:47.201Z,40
2022-11-24T13:45:17.692Z,40
2022-11-24T13:47:48.662Z,37
2022-11-24T13:50:21.513Z,35
2022-11-24T13:52:51.307Z,32
2022-11-24T13:55:22.113Z,32
2022-11-24T13:57:54.339Z,36
2022-11-24T14:00:25.550Z,32
2022-11-24T14:02:56.392Z,28
2022-11-24T14:05:28.165Z,32
2022-11-24T14:07:59.276Z,32
2022-11-24T14:10:30.547Z,36
2022-11-24T14:13:00.300Z,40
2022-11-24T14:15:35.625Z,44
2022-11-24T14:18:08.723Z,36
2022-11-24T14:20:39.329Z,40
2022-11-24T14:23:10.438Z,40
2022-11-24T14:25:42.088Z,36
2022-11-24T14:28:16.450Z,40
2022-11-24T14:30:47.395Z,40
2022-11-24T14:33:27.305Z,36
2022-11-24T14:35:58.454Z,39
2022-11-24T14:38:29.439Z,28
2022-11-24T14:41:00.168Z,28
2022-11-24T14:43:32.200Z,24
2022-11-24T14:46:04.511Z,28
2022-11-24T14:48:35.443Z,32
2022-11-24T14:51:08.848Z,24
2022-11-24T14:53:39.281Z,28
2022-11-24T14:56:10.291Z,28
2022-11-24T14:58:42.499Z,28
2022-11-24T15:01:16.215Z,28
2022-11-24T15:03:47.903Z,26
2022-11-24T15:06:19.029Z,28
2022-11-24T15:08:50.800Z,24
2022-11-24T15:11:22.899Z,16
2022-11-24T15:13:55.407Z,16
2022-11-24T15:16:26.726Z,20
2022-11-24T15:18:58.251Z,24
2022-11-24T15:21:30.233Z,20
2022-11-24T15:24:01.461Z,23
2022-11-24T15:26:36.840Z,24
2022-11-24T15:29:04.977Z,28
2022-11-24T15:31:40.228Z,24
2022-11-24T15:34:16.451Z,24
2022-11-24T15:36:47.338Z,25
2022-11-24T15:39:20.077Z,24
2022-11-24T15:41:51.724Z,27
2022-11-24T15:44:23.024Z,26
2022-11-24T15:46:55.397Z,24
2022-11-24T15:49:26.202Z,24
2022-11-24T15:51:57.736Z,29
2022-11-24T15:54:32.359Z,28
2022-11-24T15:57:06.705Z,32
2022-11-24T15:59:37.885Z,32
2022-11-24T16:02:11.748Z,32
2022-11-24T16:04:44.377Z,33
2022-11-24T16:07:15.580Z,36
2022-11-24T16:09:48.516Z,36
2022-11-24T16:12:20.941Z,38
2022-11-24T16:14:54.523Z,40
2022-11-24T16:17:27.563Z,40
2022-11-24T16:20:00.610Z,40
2022-11-24T16:22:30.294Z,40
2022-11-24T16:25:01.122Z,37
2022-11-24T16:27:34.572Z,43
2022-11-24T16:30:05.897Z,48
2022-11-24T16:32:39.590Z,44
2022-11-24T16:35:11.574Z,44
2022-11-24T16:37:44.392Z,45
2022-11-24T16:40:15.642Z,47
2022-11-24T16:42:50.215Z,37
2022-11-24T16:45:21.324Z,40
2022-11-24T16:47:52.173Z,39
2022-11-24T16:50:25.496Z,40
2022-11-24T16:52:58.284Z,36
2022-11-24T16:55:29.493Z,40
2022-11-24T16:58:00.621Z,44
2022-11-24T17:00:31.741Z,42
2022-11-24T17:03:02.994Z,64
2022-11-24T17:05:36.693Z,60
2022-11-24T17:08:10.523Z,53
2022-11-24T17:10:41.952Z,53
2022-11-24T17:13:15.529Z,58
2022-11-24T17:15:51.095Z,62
2022-11-24T17:18:25.383Z,52
2022-11-24T17:20:56.552Z,48
2022-11-24T17:23:28.271Z,44
2022-11-24T17:25:59.173Z,33
2022-11-24T17:28:32.592Z,32
2022-11-24T17:31:03.895Z,28
2022-11-24T17:33:35.076Z,28
2022-11-24T17:36:09.170Z,27
2022-11-24T17:38:40.316Z,24
2022-11-24T17:41:11.450Z,24
2022-11-24T17:43:45.365Z,23
2022-11-24T17:46:16.746Z,23
2022-11-24T17:48:49.023Z,21
2022-11-24T17:51:19.816Z,24
2022-11-24T17:53:50.824Z,24
2022-11-24T17:56:22.403Z,24
2022-11-24T17:58:53.798Z,28
2022-11-24T18:01:26.830Z,24
2022-11-24T18:03:59.054Z,24
2022-11-24T18:06:30.267Z,24
2022-11-24T18:09:05.881Z,24
2022-11-24T18:11:45.949Z,24
2022-11-24T18:14:17.191Z,26
2022-11-24T18:16:49.258Z,24
2022-11-24T18:19:20.673Z,24
2022-11-24T18:21:52.117Z,24
2022-11-24T18:24:24.293Z,24
2022-11-24T18:26:59.171Z,21
2022-11-24T18:29:30.027Z,20
2022-11-24T18:32:04.350Z,22
2022-11-24T18:34:37.223Z,20
2022-11-24T18:37:08.115Z,24
2022-11-24T18:39:44.090Z,24
2022-11-24T18:44:54.249Z,20
2022-11-24T18:47:24.441Z,20
2022-11-24T18:49:55.733Z,23
2022-11-24T18:52:29.203Z,20
2022-11-24T18:55:01.360Z,20
2022-11-24T18:57:32.585Z,30
2022-11-24T19:00:04.061Z,24
2022-11-24T19:02:35.025Z,27
2022-11-24T19:05:09.148Z,23
2022-11-24T19:07:40.529Z,24
2022-11-24T19:10:11.815Z,27
2022-11-24T19:12:44.140Z,24
2022-11-24T19:15:15.305Z,24
2022-11-24T19:17:47.471Z,24
2022-11-24T19:20:16.370Z,25
2022-11-24T19:22:47.162Z,24
2022-11-24T19:25:17.636Z,24
2022-11-24T19:27:48.716Z,24
2022-11-24T19:30:21.804Z,24
2022-11-24T19:32:52.877Z,24
2022-11-24T19:35:24.006Z,24
2022-11-24T19:38:03.286Z,24
2022-11-24T19:40:33.951Z,24
2022-11-24T19:43:04.903Z,28
2022-11-24T19:45:36.292Z,28
2022-11-24T19:48:07.571Z,25
2022-11-24T19:50:42.957Z,23
2022-11-24T19:53:14.017Z,24
2022-11-24T19:55:55.122Z,24
2022-11-24T19:58:26.200Z,28
2022-11-24T20:01:00.729Z,31
2022-11-24T20:03:32.166Z,28
2022-11-24T20:06:03.707Z,31
2022-11-24T20:08:34.876Z,32
2022-11-24T20:11:08.007Z,32
2022-11-24T20:13:38.913Z,34
2022-11-24T20:16:10.154Z,32
2022-11-24T20:18:42.087Z,40
2022-11-24T20:21:13.143Z,36
2022-11-24T20:23:44.120Z,36
2022-11-24T20:26:16.287Z,36
2022-11-24T20:28:50.960Z,32
2022-11-24T20:31:21.955Z,32
2022-11-24T20:33:53.676Z,31
2022-11-24T20:36:26.177Z,28
2022-11-24T20:38:58.801Z,28
2022-11-24T20:41:30.264Z,32
2022-11-24T20:44:01.661Z,28
2022-11-24T20:46:32.832Z,28
2022-11-24T20:49:03.835Z,25
2022-11-24T20:51:35.087Z,25
2022-11-24T20:54:07.174Z,28
2022-11-24T20:56:39.009Z,27
2022-11-24T20:59:10.332Z,24
2022-11-24T21:01:41.923Z,28
2022-11-24T21:04:14.439Z,28
2022-11-24T21:06:45.536Z,31
2022-11-24T21:09:16.416Z,28
2022-11-24T21:11:47.703Z,28
2022-11-24T21:14:19.093Z,32
2022-11-24T21:16:50.255Z,32
2022-11-24T21:19:21.525Z,28
2022-11-24T21:21:53.989Z,28
2022-11-24T21:24:25.333Z,29
2022-11-24T21:26:56.411Z,32
2022-11-24T21:29:28.117Z,32
2022-11-24T21:31:59.928Z,32
2022-11-24T21:34:32.361Z,32
2022-11-24T21:37:03.888Z,32
2022-11-24T21:39:35.566Z,32
2022-11-24T21:42:06.871Z,36
2022-11-24T21:44:38.235Z,33
2022-11-24T21:47:09.341Z,36
2022-11-24T21:49:40.883Z,29
2022-11-24T21:52:13.201Z,32
2022-11-24T21:54:44.576Z,32
2022-11-24T21:57:15.937Z,30
2022-11-24T21:59:47.031Z,28
2022-11-24T22:02:18.187Z,32
2022-11-24T22:04:50.860Z,32
2022-11-24T22:07:22.446Z,28
2022-11-24T22:09:53.681Z,28
2022-11-24T22:12:24.689Z,25
2022-11-24T22:14:55.955Z,24
2022-11-24T22:17:27.145Z,28
2022-11-24T22:22:34.699Z,24
2022-11-24T22:25:05.795Z,24
2022-11-24T22:27:36.922Z,24
2022-11-24T22:30:08.008Z,28
2022-11-24T22:32:39.550Z,29
2022-11-24T22:35:11.229Z,28
2022-11-24T22:37:43.147Z,24
2022-11-24T22:40:14.503Z,24
2022-11-24T22:42:46.121Z,25
2022-11-24T22:45:17.341Z,29
2022-11-24T22:47:48.417Z,24
2022-11-24T22:50:19.578Z,28
2022-11-24T22:52:51.032Z,28
2022-11-24T22:55:21.891Z,25
2022-11-24T22:57:56.800Z,27
2022-11-24T23:00:24.015Z,24
2022-11-24T23:02:55.130Z,28
2022-11-24T23:05:26.361Z,24
2022-11-24T23:07:57.952Z,28
2022-11-24T23:10:29.421Z,28
2022-11-24T23:12:59.906Z,24
2022-11-24T23:15:31.349Z,27
2022-11-24T23:18:02.074Z,28
2022-11-24T23:20:32.561Z,28
2022-11-24T23:23:03.091Z,24
2022-11-24T23:25:33.927Z,28
2022-11-24T23:28:05.240Z,25
2022-11-24T23:30:36.279Z,25
2022-11-24T23:33:06.841Z,27
2022-11-24T23:35:37.350Z,28
2022-11-24T23:38:08.225Z,28
2022-11-24T23:40:38.593Z,28
2022-11-24T23:43:09.692Z,28
2022-11-24T23:45:40.798Z,24
2022-11-24T23:48:12.909Z,28
2022-11-24T23:50:43.643Z,25
2022-11-24T23:53:15.050Z,24
2022-11-24T23:55:43.866Z,26
2022-11-24T23:58:15.015Z,24
